sensor_id;sensor_type;location;lat;lon;timestamp;pressure;altitude;pressure_sealevel;temperature;humidity
70968;BME280;58629;48.808;8.820;2023-03-08T00:15:09;95758.22;;;3.30;60.92
70968;BME280;58629;48.808;8.820;2023-03-08T00:17:36;95766.94;;;3.20;61.18
70968;BME280;58629;48.808;8.820;2023-03-08T00:20:02;95767.69;;;3.17;61.88
70968;BME280;58629;48.808;8.820;2023-03-08T00:22:29;95763.69;;;3.09;61.44
70968;BME280;58629;48.808;8.820;2023-03-08T00:24:55;95780.50;;;3.08;62.23
70968;BME280;58629;48.808;8.820;2023-03-08T00:27:20;95781.63;;;3.11;61.76
70968;BME280;58629;48.808;8.820;2023-03-08T00:29:45;95786.84;;;3.11;61.36
70968;BME280;58629;48.808;8.820;2023-03-08T00:32:10;95785.75;;;3.08;61.60
70968;BME280;58629;48.808;8.820;2023-03-08T00:34:36;95789.09;;;3.09;61.45
70968;BME280;58629;48.808;8.820;2023-03-08T00:37:01;95783.53;;;3.07;61.70
70968;BME280;58629;48.808;8.820;2023-03-08T00:39:26;95775.31;;;3.05;61.77
70968;BME280;58629;48.808;8.820;2023-03-08T00:41:52;95763.38;;;3.04;62.01
70968;BME280;58629;48.808;8.820;2023-03-08T00:44:17;95750.75;;;2.95;62.22
70968;BME280;58629;48.808;8.820;2023-03-08T00:46:42;95737.31;;;2.93;62.74
70968;BME280;58629;48.808;8.820;2023-03-08T00:49:08;95732.94;;;2.87;62.23
70968;BME280;58629;48.808;8.820;2023-03-08T00:51:33;95738.59;;;2.78;62.14
70968;BME280;58629;48.808;8.820;2023-03-08T00:53:59;95736.78;;;2.72;62.81
70968;BME280;58629;48.808;8.820;2023-03-08T00:56:24;95739.41;;;2.72;62.33
70968;BME280;58629;48.808;8.820;2023-03-08T00:58:49;95738.34;;;2.69;62.77
70968;BME280;58629;48.808;8.820;2023-03-08T01:01:17;95739.13;;;2.62;62.44
70968;BME280;58629;48.808;8.820;2023-03-08T01:03:42;95727.53;;;2.63;62.97
70968;BME280;58629;48.808;8.820;2023-03-08T01:06:10;95719.03;;;2.56;63.78
70968;BME280;58629;48.808;8.820;2023-03-08T01:08:37;95720.53;;;2.57;63.49
70968;BME280;58629;48.808;8.820;2023-03-08T01:11:04;95713.09;;;2.52;63.29
70968;BME280;58629;48.808;8.820;2023-03-08T01:13:34;95709.06;;;2.47;63.70
70968;BME280;58629;48.808;8.820;2023-03-08T01:16:00;95707.22;;;2.41;64.21
70968;BME280;58629;48.808;8.820;2023-03-08T01:18:25;95702.38;;;2.43;63.63
70968;BME280;58629;48.808;8.820;2023-03-08T01:20:59;95700.19;;;2.34;64.29
70968;BME280;58629;48.808;8.820;2023-03-08T01:23:24;95696.16;;;2.26;65.17
70968;BME280;58629;48.808;8.820;2023-03-08T01:26:00;95689.06;;;2.27;64.55
70968;BME280;58629;48.808;8.820;2023-03-08T01:28:26;95690.94;;;2.26;64.81
70968;BME280;58629;48.808;8.820;2023-03-08T01:30:52;95682.34;;;2.26;65.22
70968;BME280;58629;48.808;8.820;2023-03-08T01:33:17;95680.56;;;2.19;65.38
70968;BME280;58629;48.808;8.820;2023-03-08T01:35:42;95671.56;;;2.24;65.25
70968;BME280;58629;48.808;8.820;2023-03-08T01:38:08;95671.63;;;2.17;65.68
70968;BME280;58629;48.808;8.820;2023-03-08T01:40:33;95670.16;;;2.12;66.58
70968;BME280;58629;48.808;8.820;2023-03-08T01:42:58;95682.13;;;2.10;66.70
70968;BME280;58629;48.808;8.820;2023-03-08T01:48:31;95660.94;;;2.01;67.42
70968;BME280;58629;48.808;8.820;2023-03-08T01:50:58;95668.44;;;1.95;67.52
70968;BME280;58629;48.808;8.820;2023-03-08T01:53:25;95664.72;;;1.93;68.02
70968;BME280;58629;48.808;8.820;2023-03-08T01:55:50;95663.66;;;1.90;68.05
70968;BME280;58629;48.808;8.820;2023-03-08T01:58:16;95665.50;;;1.90;68.57
70968;BME280;58629;48.808;8.820;2023-03-08T02:00:41;95658.88;;;1.82;68.89
70968;BME280;58629;48.808;8.820;2023-03-08T02:03:09;95667.44;;;1.78;68.62
70968;BME280;58629;48.808;8.820;2023-03-08T02:05:36;95665.63;;;1.75;69.05
70968;BME280;58629;48.808;8.820;2023-03-08T02:08:03;95673.47;;;1.72;69.33
70968;BME280;58629;48.808;8.820;2023-03-08T02:10:28;95670.16;;;1.68;70.14
70968;BME280;58629;48.808;8.820;2023-03-08T02:12:54;95668.28;;;1.65;69.88
70968;BME280;58629;48.808;8.820;2023-03-08T02:15:20;95669.78;;;1.66;70.33
70968;BME280;58629;48.808;8.820;2023-03-08T02:17:46;95658.22;;;1.67;70.24
70968;BME280;58629;48.808;8.820;2023-03-08T02:20:20;95643.28;;;1.71;69.70
70968;BME280;58629;48.808;8.820;2023-03-08T02:22:47;95645.19;;;1.63;70.60
70968;BME280;58629;48.808;8.820;2023-03-08T02:25:21;95651.19;;;1.60;70.42
70968;BME280;58629;48.808;8.820;2023-03-08T02:27:47;95645.97;;;1.57;70.88
70968;BME280;58629;48.808;8.820;2023-03-08T02:30:16;95644.06;;;1.64;71.07
70968;BME280;58629;48.808;8.820;2023-03-08T02:32:46;95638.88;;;1.61;71.58
70968;BME280;58629;48.808;8.820;2023-03-08T02:35:12;95626.22;;;1.59;71.68
70968;BME280;58629;48.808;8.820;2023-03-08T02:37:37;95625.47;;;1.59;71.97
70968;BME280;58629;48.808;8.820;2023-03-08T02:40:02;95619.88;;;1.60;72.12
70968;BME280;58629;48.808;8.820;2023-03-08T02:42:28;95619.53;;;1.58;71.89
70968;BME280;58629;48.808;8.820;2023-03-08T02:44:53;95624.00;;;1.58;72.21
70968;BME280;58629;48.808;8.820;2023-03-08T02:47:18;95619.16;;;1.56;71.82
70968;BME280;58629;48.808;8.820;2023-03-08T02:49:43;95617.63;;;1.59;72.16
70968;BME280;58629;48.808;8.820;2023-03-08T02:52:09;95610.91;;;1.61;72.15
70968;BME280;58629;48.808;8.820;2023-03-08T02:54:34;95606.44;;;1.62;71.89
70968;BME280;58629;48.808;8.820;2023-03-08T02:56:59;95598.19;;;1.67;71.49
70968;BME280;58629;48.808;8.820;2023-03-08T02:59:25;95598.56;;;1.69;71.87
70968;BME280;58629;48.808;8.820;2023-03-08T03:01:51;95587.38;;;1.68;71.90
70968;BME280;58629;48.808;8.820;2023-03-08T03:04:17;95587.72;;;1.70;71.27
70968;BME280;58629;48.808;8.820;2023-03-08T03:06:42;95578.00;;;1.74;71.94
70968;BME280;58629;48.808;8.820;2023-03-08T03:09:08;95565.31;;;1.80;70.97
70968;BME280;58629;48.808;8.820;2023-03-08T03:11:34;95560.81;;;1.81;71.41
70968;BME280;58629;48.808;8.820;2023-03-08T03:14:00;95558.94;;;1.81;70.75
70968;BME280;58629;48.808;8.820;2023-03-08T03:16:26;95569.34;;;1.85;71.14
70968;BME280;58629;48.808;8.820;2023-03-08T03:18:52;95563.00;;;1.86;71.10
70968;BME280;58629;48.808;8.820;2023-03-08T03:21:18;95554.03;;;1.87;71.09
70968;BME280;58629;48.808;8.820;2023-03-08T03:23:43;95547.41;;;1.78;70.89
70968;BME280;58629;48.808;8.820;2023-03-08T03:26:12;95551.47;;;1.83;70.54
70968;BME280;58629;48.808;8.820;2023-03-08T03:28:37;95549.25;;;1.82;70.43
70968;BME280;58629;48.808;8.820;2023-03-08T03:31:11;95548.91;;;1.80;70.49
70968;BME280;58629;48.808;8.820;2023-03-08T03:33:37;95541.09;;;1.76;70.81
70968;BME280;58629;48.808;8.820;2023-03-08T03:36:04;95527.69;;;1.74;71.03
70968;BME280;58629;48.808;8.820;2023-03-08T03:38:29;95523.25;;;1.71;71.01
70968;BME280;58629;48.808;8.820;2023-03-08T03:41:05;95520.28;;;1.69;71.14
70968;BME280;58629;48.808;8.820;2023-03-08T03:43:31;95516.66;;;1.59;71.16
70968;BME280;58629;48.808;8.820;2023-03-08T03:45:58;95514.44;;;1.58;71.23
70968;BME280;58629;48.808;8.820;2023-03-08T03:48:24;95516.69;;;1.56;71.03
70968;BME280;58629;48.808;8.820;2023-03-08T03:50:57;95519.66;;;1.58;70.67
70968;BME280;58629;48.808;8.820;2023-03-08T03:53:23;95526.44;;;1.48;71.90
70968;BME280;58629;48.808;8.820;2023-03-08T03:55:48;95517.09;;;1.51;71.77
70968;BME280;58629;48.808;8.820;2023-03-08T03:58:13;95505.50;;;1.55;71.92
70968;BME280;58629;48.808;8.820;2023-03-08T04:00:39;95501.06;;;1.52;72.31
70968;BME280;58629;48.808;8.820;2023-03-08T04:03:04;95508.84;;;1.56;71.70
70968;BME280;58629;48.808;8.820;2023-03-08T04:05:29;95507.34;;;1.58;71.50
70968;BME280;58629;48.808;8.820;2023-03-08T04:07:55;95499.47;;;1.62;71.71
70968;BME280;58629;48.808;8.820;2023-03-08T04:10:20;95490.13;;;1.64;71.67
70968;BME280;58629;48.808;8.820;2023-03-08T04:12:51;95499.84;;;1.64;71.91
70968;BME280;58629;48.808;8.820;2023-03-08T04:15:16;95502.44;;;1.64;71.83
70968;BME280;58629;48.808;8.820;2023-03-08T04:17:42;95488.31;;;1.61;72.33
70968;BME280;58629;48.808;8.820;2023-03-08T04:20:08;95495.00;;;1.62;72.12
70968;BME280;58629;48.808;8.820;2023-03-08T04:22:33;95507.31;;;1.62;72.02
70968;BME280;58629;48.808;8.820;2023-03-08T04:24:58;95500.56;;;1.64;71.96
70968;BME280;58629;48.808;8.820;2023-03-08T04:27:24;95504.28;;;1.67;71.65
70968;BME280;58629;48.808;8.820;2023-03-08T04:29:49;95493.03;;;1.73;71.49
70968;BME280;58629;48.808;8.820;2023-03-08T04:32:15;95479.59;;;1.75;71.48
70968;BME280;58629;48.808;8.820;2023-03-08T04:34:40;95468.38;;;1.78;71.84
70968;BME280;58629;48.808;8.820;2023-03-08T04:37:08;95466.13;;;1.80;71.37
70968;BME280;58629;48.808;8.820;2023-03-08T04:39:34;95460.47;;;1.85;71.76
70968;BME280;58629;48.808;8.820;2023-03-08T04:41:59;95452.69;;;1.82;71.56
70968;BME280;58629;48.808;8.820;2023-03-08T04:44:25;95440.75;;;1.81;71.74
70968;BME280;58629;48.808;8.820;2023-03-08T04:46:50;95440.38;;;1.82;71.88
70968;BME280;58629;48.808;8.820;2023-03-08T04:49:15;95427.28;;;1.86;72.16
70968;BME280;58629;48.808;8.820;2023-03-08T04:51:41;95434.38;;;1.85;71.83
70968;BME280;58629;48.808;8.820;2023-03-08T04:54:06;95431.03;;;1.85;71.78
70968;BME280;58629;48.808;8.820;2023-03-08T04:56:31;95432.16;;;1.84;71.95
70968;BME280;58629;48.808;8.820;2023-03-08T04:58:56;95422.47;;;1.84;72.00
70968;BME280;58629;48.808;8.820;2023-03-08T05:01:22;95416.47;;;1.87;72.17
70968;BME280;58629;48.808;8.820;2023-03-08T05:03:48;95422.44;;;1.88;72.00
70968;BME280;58629;48.808;8.820;2023-03-08T05:06:16;95420.91;;;1.90;72.24
70968;BME280;58629;48.808;8.820;2023-03-08T05:08:42;95423.53;;;1.87;72.67
70968;BME280;58629;48.808;8.820;2023-03-08T05:11:08;95417.16;;;1.91;71.70
70968;BME280;58629;48.808;8.820;2023-03-08T05:13:37;95408.88;;;1.96;71.75
70968;BME280;58629;48.808;8.820;2023-03-08T05:16:04;95403.94;;;2.05;71.91
70968;BME280;58629;48.808;8.820;2023-03-08T05:18:30;95396.44;;;2.07;71.20
70968;BME280;58629;48.808;8.820;2023-03-08T05:20:57;95396.75;;;2.13;71.20
70968;BME280;58629;48.808;8.820;2023-03-08T05:23:23;95400.09;;;2.13;71.07
70968;BME280;58629;48.808;8.820;2023-03-08T05:25:57;95393.31;;;2.19;71.74
70968;BME280;58629;48.808;8.820;2023-03-08T05:28:24;95392.50;;;2.22;71.01
70968;BME280;58629;48.808;8.820;2023-03-08T05:31:10;95384.59;;;2.29;70.96
70968;BME280;58629;48.808;8.820;2023-03-08T05:33:36;95386.06;;;2.30;70.46
70968;BME280;58629;48.808;8.820;2023-03-08T05:36:03;95382.69;;;2.33;69.91
70968;BME280;58629;48.808;8.820;2023-03-08T05:38:29;95384.19;;;2.31;70.32
70968;BME280;58629;48.808;8.820;2023-03-08T05:40:54;95388.28;;;2.32;70.19
70968;BME280;58629;48.808;8.820;2023-03-08T05:43:23;95391.22;;;2.37;70.05
70968;BME280;58629;48.808;8.820;2023-03-08T05:45:56;95386.66;;;2.41;69.82
70968;BME280;58629;48.808;8.820;2023-03-08T05:48:22;95382.09;;;2.49;74.05
70968;BME280;58629;48.808;8.820;2023-03-08T05:50:47;95391.34;;;2.53;72.32
70968;BME280;58629;48.808;8.820;2023-03-08T05:53:13;95382.59;;;2.63;70.37
70968;BME280;58629;48.808;8.820;2023-03-08T05:55:38;95383.06;;;2.82;73.61
70968;BME280;58629;48.808;8.820;2023-03-08T05:58:03;95378.97;;;3.04;75.24
70968;BME280;58629;48.808;8.820;2023-03-08T06:00:28;95379.69;;;3.47;78.96
70968;BME280;58629;48.808;8.820;2023-03-08T06:02:54;95371.09;;;4.05;77.84
70968;BME280;58629;48.808;8.820;2023-03-08T06:05:19;95363.56;;;4.59;75.15
70968;BME280;58629;48.808;8.820;2023-03-08T06:07:44;95362.88;;;5.03;73.74
70968;BME280;58629;48.808;8.820;2023-03-08T06:10:10;95368.72;;;5.40;66.12
70968;BME280;58629;48.808;8.820;2023-03-08T06:12:35;95365.47;;;5.77;68.64
70968;BME280;58629;48.808;8.820;2023-03-08T06:15:00;95371.53;;;5.90;66.73
70968;BME280;58629;48.808;8.820;2023-03-08T06:17:26;95361.34;;;6.17;66.25
70968;BME280;58629;48.808;8.820;2023-03-08T06:19:51;95361.47;;;6.39;64.09
70968;BME280;58629;48.808;8.820;2023-03-08T06:22:16;95354.09;;;6.59;63.07
70968;BME280;58629;48.808;8.820;2023-03-08T06:24:42;95349.47;;;6.75;61.69
70968;BME280;58629;48.808;8.820;2023-03-08T06:27:07;95338.38;;;6.93;61.99
70968;BME280;58629;48.808;8.820;2023-03-08T06:29:32;95341.63;;;6.97;60.82
70968;BME280;58629;48.808;8.820;2023-03-08T06:31:57;95332.09;;;7.12;60.46
70968;BME280;58629;48.808;8.820;2023-03-08T06:34:23;95323.13;;;7.22;59.70
70968;BME280;58629;48.808;8.820;2023-03-08T06:36:48;95331.81;;;7.32;59.24
70968;BME280;58629;48.808;8.820;2023-03-08T06:39:15;95338.75;;;7.38;58.59
70968;BME280;58629;48.808;8.820;2023-03-08T06:41:41;95332.69;;;7.50;58.49
70968;BME280;58629;48.808;8.820;2023-03-08T06:44:06;95327.47;;;7.59;57.94
70968;BME280;58629;48.808;8.820;2023-03-08T06:46:31;95336.94;;;7.35;56.77
70968;BME280;58629;48.808;8.820;2023-03-08T06:48:59;95326.25;;;7.51;57.64
70968;BME280;58629;48.808;8.820;2023-03-08T06:51:24;95324.34;;;7.52;57.70
70968;BME280;58629;48.808;8.820;2023-03-08T06:53:50;95316.47;;;7.52;57.52
70968;BME280;58629;48.808;8.820;2023-03-08T06:56:16;95317.06;;;7.56;57.83
70968;BME280;58629;48.808;8.820;2023-03-08T06:58:41;95324.66;;;6.98;56.97
70968;BME280;58629;48.808;8.820;2023-03-08T07:01:11;95318.00;;;6.72;57.08
70968;BME280;58629;48.808;8.820;2023-03-08T07:03:36;95314.91;;;6.01;59.55
70968;BME280;58629;48.808;8.820;2023-03-08T07:06:04;95308.97;;;5.85;61.00
70968;BME280;58629;48.808;8.820;2023-03-08T07:08:31;95310.41;;;5.32;63.66
70968;BME280;58629;48.808;8.820;2023-03-08T07:10:56;95296.66;;;5.28;64.66
70968;BME280;58629;48.808;8.820;2023-03-08T07:13:23;95308.72;;;4.97;66.58
70968;BME280;58629;48.808;8.820;2023-03-08T07:15:49;95295.94;;;4.83;67.80
70968;BME280;58629;48.808;8.820;2023-03-08T07:18:14;95285.28;;;4.74;68.98
70968;BME280;58629;48.808;8.820;2023-03-08T07:20:40;95282.44;;;4.68;70.10
70968;BME280;58629;48.808;8.820;2023-03-08T07:23:05;95289.28;;;4.50;71.37
70968;BME280;58629;48.808;8.820;2023-03-08T07:25:30;95279.25;;;4.61;72.00
70968;BME280;58629;48.808;8.820;2023-03-08T07:27:58;95266.38;;;4.66;72.56
70968;BME280;58629;48.808;8.820;2023-03-08T07:30:23;95270.97;;;4.62;72.90
70968;BME280;58629;48.808;8.820;2023-03-08T07:32:48;95260.69;;;4.55;73.59
70968;BME280;58629;48.808;8.820;2023-03-08T07:35:14;95267.16;;;4.51;74.59
70968;BME280;58629;48.808;8.820;2023-03-08T07:37:43;95262.13;;;4.56;75.16
70968;BME280;58629;48.808;8.820;2023-03-08T07:40:10;95261.50;;;4.52;75.72
70968;BME280;58629;48.808;8.820;2023-03-08T07:42:35;95251.41;;;4.51;76.66
70968;BME280;58629;48.808;8.820;2023-03-08T07:45:01;95250.44;;;4.45;77.03
70968;BME280;58629;48.808;8.820;2023-03-08T07:47:26;95246.75;;;4.42;78.01
70968;BME280;58629;48.808;8.820;2023-03-08T07:49:51;95240.94;;;4.34;77.80
70968;BME280;58629;48.808;8.820;2023-03-08T07:52:17;95239.81;;;4.35;78.92
70968;BME280;58629;48.808;8.820;2023-03-08T07:54:42;95223.69;;;4.37;79.87
70968;BME280;58629;48.808;8.820;2023-03-08T07:57:12;95206.44;;;4.52;79.47
70968;BME280;58629;48.808;8.820;2023-03-08T07:59:37;95209.50;;;4.51;79.82
70968;BME280;58629;48.808;8.820;2023-03-08T08:02:02;95211.59;;;4.56;79.51
70968;BME280;58629;48.808;8.820;2023-03-08T08:04:28;95200.72;;;4.57;80.33
70968;BME280;58629;48.808;8.820;2023-03-08T08:06:53;95199.56;;;4.58;80.21
70968;BME280;58629;48.808;8.820;2023-03-08T08:09:18;95193.34;;;4.52;80.47
70968;BME280;58629;48.808;8.820;2023-03-08T08:11:44;95193.94;;;4.44;81.04
70968;BME280;58629;48.808;8.820;2023-03-08T08:14:09;95181.56;;;4.44;81.80
70968;BME280;58629;48.808;8.820;2023-03-08T08:16:34;95169.19;;;4.45;81.52
70968;BME280;58629;48.808;8.820;2023-03-08T08:18:59;95157.00;;;4.38;81.53
70968;BME280;58629;48.808;8.820;2023-03-08T08:21:25;95149.88;;;4.38;82.25
70968;BME280;58629;48.808;8.820;2023-03-08T08:23:50;95150.13;;;4.44;82.74
70968;BME280;58629;48.808;8.820;2023-03-08T08:26:18;95154.66;;;4.44;83.24
70968;BME280;58629;48.808;8.820;2023-03-08T08:28:46;95149.25;;;4.34;83.98
70968;BME280;58629;48.808;8.820;2023-03-08T08:31:15;95143.88;;;4.25;85.09
70968;BME280;58629;48.808;8.820;2023-03-08T08:33:41;95126.03;;;4.20;86.49
70968;BME280;58629;48.808;8.820;2023-03-08T08:36:10;95136.59;;;4.17;85.98
70968;BME280;58629;48.808;8.820;2023-03-08T08:38:36;95143.06;;;4.12;86.79
70968;BME280;58629;48.808;8.820;2023-03-08T08:41:03;95130.38;;;4.11;87.53
70968;BME280;58629;48.808;8.820;2023-03-08T08:43:29;95122.44;;;4.14;87.91
70968;BME280;58629;48.808;8.820;2023-03-08T08:45:57;95122.44;;;4.14;88.72
70968;BME280;58629;48.808;8.820;2023-03-08T08:48:23;95124.66;;;4.16;89.30
70968;BME280;58629;48.808;8.820;2023-03-08T08:50:49;95109.66;;;4.16;89.53
70968;BME280;58629;48.808;8.820;2023-03-08T08:53:14;95114.09;;;4.19;89.77
70968;BME280;58629;48.808;8.820;2023-03-08T08:55:40;95111.13;;;4.17;89.82
70968;BME280;58629;48.808;8.820;2023-03-08T08:58:05;95105.16;;;4.17;90.46
70968;BME280;58629;48.808;8.820;2023-03-08T09:00:32;95105.81;;;4.21;91.50
70968;BME280;58629;48.808;8.820;2023-03-08T09:02:59;95098.91;;;4.27;90.56
70968;BME280;58629;48.808;8.820;2023-03-08T09:05:24;95107.19;;;4.25;91.07
70968;BME280;58629;48.808;8.820;2023-03-08T09:07:53;95104.78;;;4.31;90.31
70968;BME280;58629;48.808;8.820;2023-03-08T09:10:18;95103.69;;;4.45;90.63
70968;BME280;58629;48.808;8.820;2023-03-08T09:12:44;95098.97;;;4.39;90.53
70968;BME280;58629;48.808;8.820;2023-03-08T09:15:09;95091.81;;;4.40;91.18
70968;BME280;58629;48.808;8.820;2023-03-08T09:17:37;95092.84;;;4.30;90.95
70968;BME280;58629;48.808;8.820;2023-03-08T09:20:02;95095.50;;;4.43;91.33
70968;BME280;58629;48.808;8.820;2023-03-08T09:22:30;95088.50;;;4.52;92.04
70968;BME280;58629;48.808;8.820;2023-03-08T09:24:56;95073.00;;;4.58;91.82
70968;BME280;58629;48.808;8.820;2023-03-08T09:27:21;95070.72;;;4.72;92.05
70968;BME280;58629;48.808;8.820;2023-03-08T09:29:46;95064.03;;;4.96;91.45
70968;BME280;58629;48.808;8.820;2023-03-08T09:32:11;95060.91;;;5.14;91.15
70968;BME280;58629;48.808;8.820;2023-03-08T09:34:37;95046.19;;;5.29;90.72
70968;BME280;58629;48.808;8.820;2023-03-08T09:37:02;95045.25;;;5.23;89.42
70968;BME280;58629;48.808;8.820;2023-03-08T09:39:29;95038.31;;;5.29;89.43
70968;BME280;58629;48.808;8.820;2023-03-08T09:41:57;95047.97;;;5.45;89.55
70968;BME280;58629;48.808;8.820;2023-03-08T09:47:58;95024.44;;;5.54;89.02
70968;BME280;58629;48.808;8.820;2023-03-08T09:53:20;95029.91;;;5.93;89.33
70968;BME280;58629;48.808;8.820;2023-03-08T09:55:55;95024.63;;;6.06;88.62
70968;BME280;58629;48.808;8.820;2023-03-08T10:00:47;95004.50;;;6.34;88.52
70968;BME280;58629;48.808;8.820;2023-03-08T10:08:46;95015.03;;;6.34;88.46
70968;BME280;58629;48.808;8.820;2023-03-08T10:11:42;95011.53;;;6.37;89.08
70968;BME280;58629;48.808;8.820;2023-03-08T10:14:33;95001.94;;;6.43;89.35
70968;BME280;58629;48.808;8.820;2023-03-08T10:17:02;94990.78;;;6.60;90.29
70968;BME280;58629;48.808;8.820;2023-03-08T10:19:41;94997.63;;;6.58;89.85
70968;BME280;58629;48.808;8.820;2023-03-08T10:22:22;95003.63;;;6.58;89.29
70968;BME280;58629;48.808;8.820;2023-03-08T10:24:54;95005.03;;;6.50;91.09
70968;BME280;58629;48.808;8.820;2023-03-08T10:27:25;95005.88;;;6.69;90.62
70968;BME280;58629;48.808;8.820;2023-03-08T10:29:55;94986.34;;;6.79;90.77
70968;BME280;58629;48.808;8.820;2023-03-08T10:32:22;94991.31;;;6.86;91.49
70968;BME280;58629;48.808;8.820;2023-03-08T10:34:47;94991.53;;;7.00;91.08
70968;BME280;58629;48.808;8.820;2023-03-08T10:37:13;94990.09;;;7.09;90.00
70968;BME280;58629;48.808;8.820;2023-03-08T10:39:50;94977.53;;;7.13;91.69
70968;BME280;58629;48.808;8.820;2023-03-08T10:42:20;94992.78;;;7.27;91.50
70968;BME280;58629;48.808;8.820;2023-03-08T10:44:59;94966.03;;;7.46;90.54
70968;BME280;58629;48.808;8.820;2023-03-08T10:47:30;94966.06;;;7.64;88.93
70968;BME280;58629;48.808;8.820;2023-03-08T10:50:13;94968.53;;;7.77;87.16
70968;BME280;58629;48.808;8.820;2023-03-08T10:52:39;94964.25;;;8.07;87.89
70968;BME280;58629;48.808;8.820;2023-03-08T10:57:39;94968.84;;;8.75;86.21
70968;BME280;58629;48.808;8.820;2023-03-08T11:03:11;94964.28;;;9.32;83.53
70968;BME280;58629;48.808;8.820;2023-03-08T11:05:36;94979.88;;;9.53;82.05
70968;BME280;58629;48.808;8.820;2023-03-08T11:08:02;94984.69;;;9.31;82.86
70968;BME280;58629;48.808;8.820;2023-03-08T11:10:29;94991.09;;;9.16;82.54
70968;BME280;58629;48.808;8.820;2023-03-08T11:13:17;94983.50;;;9.09;nan
70968;BME280;58629;48.808;8.820;2023-03-08T11:15:51;94983.56;;;9.23;82.99
70968;BME280;58629;48.808;8.820;2023-03-08T11:21:19;94986.25;;;9.14;81.19
70968;BME280;58629;48.808;8.820;2023-03-08T11:23:53;94980.16;;;9.32;81.11
70968;BME280;58629;48.808;8.820;2023-03-08T11:26:39;94987.91;;;9.35;81.05
70968;BME280;58629;48.808;8.820;2023-03-08T11:29:24;94972.78;;;9.36;79.93
70968;BME280;58629;48.808;8.820;2023-03-08T11:40:46;94957.97;;;9.77;78.51
70968;BME280;58629;48.808;8.820;2023-03-08T11:51:19;94983.97;;;9.78;78.33
70968;BME280;58629;48.808;8.820;2023-03-08T11:56:45;94995.28;;;9.93;78.88
70968;BME280;58629;48.808;8.820;2023-03-08T12:00:03;94972.47;;;10.34;75.92
70968;BME280;58629;48.808;8.820;2023-03-08T12:02:20;94973.97;;;10.50;76.21
70968;BME280;58629;48.808;8.820;2023-03-08T12:05:04;94975.38;;;10.36;76.30
70968;BME280;58629;48.808;8.820;2023-03-08T12:07:36;94980.97;;;10.53;75.58
70968;BME280;58629;48.808;8.820;2023-03-08T12:10:14;94985.38;;;10.56;75.73
70968;BME280;58629;48.808;8.820;2023-03-08T12:12:47;94962.31;;;10.76;75.24
70968;BME280;58629;48.808;8.820;2023-03-08T12:15:36;94978.25;;;10.47;75.58
70968;BME280;58629;48.808;8.820;2023-03-08T12:20:37;94983.88;;;10.40;75.83
70968;BME280;58629;48.808;8.820;2023-03-08T12:23:19;94983.44;;;10.71;75.76
70968;BME280;58629;48.808;8.820;2023-03-08T12:25:51;94996.81;;;10.82;75.22
70968;BME280;58629;48.808;8.820;2023-03-08T12:28:24;94983.63;;;10.67;75.65
70968;BME280;58629;48.808;8.820;2023-03-08T12:33:49;94985.25;;;10.65;75.67
70968;BME280;58629;48.808;8.820;2023-03-08T12:36:14;94988.41;;;10.98;76.33
70968;BME280;58629;48.808;8.820;2023-03-08T12:38:43;95000.19;;;11.31;75.13
70968;BME280;58629;48.808;8.820;2023-03-08T12:41:28;94988.56;;;11.64;73.61
70968;BME280;58629;48.808;8.820;2023-03-08T12:44:25;95006.63;;;11.45;71.88
70968;BME280;58629;48.808;8.820;2023-03-08T12:46:53;94989.03;;;11.62;72.31
70968;BME280;58629;48.808;8.820;2023-03-08T12:49:32;94999.06;;;11.73;71.33
70968;BME280;58629;48.808;8.820;2023-03-08T12:52:03;94981.56;;;11.81;71.41
70968;BME280;58629;48.808;8.820;2023-03-08T12:54:31;94975.06;;;11.82;72.57
70968;BME280;58629;48.808;8.820;2023-03-08T12:56:58;94989.34;;;11.84;70.03
70968;BME280;58629;48.808;8.820;2023-03-08T12:59:35;94991.03;;;11.87;71.88
70968;BME280;58629;48.808;8.820;2023-03-08T13:02:22;94994.81;;;11.81;72.59
70968;BME280;58629;48.808;8.820;2023-03-08T13:04:48;95010.56;;;11.84;71.24
70968;BME280;58629;48.808;8.820;2023-03-08T13:07:25;94991.47;;;11.80;72.23
70968;BME280;58629;48.808;8.820;2023-03-08T13:10:00;94982.56;;;11.83;72.70
70968;BME280;58629;48.808;8.820;2023-03-08T13:12:33;94990.03;;;11.85;71.20
70968;BME280;58629;48.808;8.820;2023-03-08T13:15:17;94984.72;;;11.65;73.64
70968;BME280;58629;48.808;8.820;2023-03-08T13:17:50;94992.06;;;11.70;74.26
70968;BME280;58629;48.808;8.820;2023-03-08T13:22:44;94986.06;;;11.20;75.37
70968;BME280;58629;48.808;8.820;2023-03-08T13:25:24;94985.25;;;11.14;76.94
70968;BME280;58629;48.808;8.820;2023-03-08T13:28:05;94979.34;;;11.04;75.32
70968;BME280;58629;48.808;8.820;2023-03-08T13:30:35;94979.91;;;11.08;75.13
70968;BME280;58629;48.808;8.820;2023-03-08T13:33:16;94974.88;;;11.10;75.66
70968;BME280;58629;48.808;8.820;2023-03-08T13:35:53;94974.44;;;10.97;76.98
70968;BME280;58629;48.808;8.820;2023-03-08T13:38:20;94976.72;;;10.90;77.91
70968;BME280;58629;48.808;8.820;2023-03-08T13:40:54;94974.56;;;10.74;79.88
70968;BME280;58629;48.808;8.820;2023-03-08T13:43:21;94968.47;;;10.53;80.67
70968;BME280;58629;48.808;8.820;2023-03-08T13:45:52;94975.75;;;10.29;83.88
70968;BME280;58629;48.808;8.820;2023-03-08T13:48:19;94976.19;;;10.13;86.02
70968;BME280;58629;48.808;8.820;2023-03-08T13:50:47;94972.22;;;9.94;86.18
70968;BME280;58629;48.808;8.820;2023-03-08T13:53:23;94974.88;;;9.94;87.99
70968;BME280;58629;48.808;8.820;2023-03-08T13:55:52;94961.84;;;10.05;87.35
70968;BME280;58629;48.808;8.820;2023-03-08T13:58:40;94959.63;;;10.27;86.74
70968;BME280;58629;48.808;8.820;2023-03-08T14:01:18;94944.31;;;10.45;86.36
70968;BME280;58629;48.808;8.820;2023-03-08T14:03:45;94935.72;;;10.51;88.46
70968;BME280;58629;48.808;8.820;2023-03-08T14:08:49;94940.72;;;10.63;84.69
70968;BME280;58629;48.808;8.820;2023-03-08T14:11:19;94961.72;;;10.52;85.24
70968;BME280;58629;48.808;8.820;2023-03-08T14:13:48;94953.41;;;10.44;84.61
70968;BME280;58629;48.808;8.820;2023-03-08T14:16:36;94956.16;;;10.21;85.49
70968;BME280;58629;48.808;8.820;2023-03-08T14:21:52;94970.75;;;10.31;87.55
70968;BME280;58629;48.808;8.820;2023-03-08T14:24:21;94966.66;;;10.30;88.10
70968;BME280;58629;48.808;8.820;2023-03-08T14:27:04;94962.97;;;10.42;85.85
70968;BME280;58629;48.808;8.820;2023-03-08T14:29:34;94958.72;;;10.30;88.36